Time;durP1;ratioP1;P1;durP2;ratioP2;P2;SDS_P1;SDS_P2;PMS_P1;PMS_P2;Temp;Humidity;BMP_temperature;BMP_pressure;BME280_temperature;BME280_humidity;BME280_pressure;Samples;Min_cycle;Max_cycle;Signal;HPM_P1;HPM_P2
2021/09/30 00:00:46;;;;;;;11.82;1.67;;;;;;;15.30;57.23;102333.16;5032591;28;20053;-66
2021/09/30 00:03:13;;;;;;;11.77;1.80;;;;;;;15.24;57.50;102328.81;5026611;28;20045;-66
2021/09/30 00:05:43;;;;;;;9.50;1.52;;;;;;;15.07;57.38;102326.63;5028442;28;20053;-67
2021/09/30 00:08:10;;;;;;;6.88;1.30;;;;;;;15.27;57.35;102331.00;5034539;28;20068;-66
2021/09/30 00:10:45;;;;;;;6.38;1.70;;;;;;;15.50;56.81;102324.44;5035792;28;20056;-66
2021/09/30 00:13:38;;;;;;;5.05;1.15;;;;;;;15.29;56.52;102326.75;5034921;28;20488;-66
2021/09/30 00:16:36;;;;;;;10.93;1.33;;;;;;;15.39;56.36;102326.59;5026821;28;20049;-66
2021/09/30 00:35:59;;;;;;;7.43;1.60;;;;;;;15.32;57.01;102328.13;5025514;28;20060;-66
2021/09/30 00:41:33;;;;;;;8.60;1.50;;;;;;;15.21;56.56;102319.16;5029260;28;20045;-66
2021/09/30 00:47:05;;;;;;;8.82;1.70;;;;;;;15.06;57.04;102319.44;5034306;28;20049;-67
2021/09/30 02:58:37;;;;;;;7.32;1.60;;;;;;;14.46;59.13;102270.53;5017095;28;20049;-61
2021/09/30 03:01:17;;;;;;;7.15;1.23;;;;;;;14.53;59.01;102268.19;5019187;28;20060;-62
2021/09/30 03:03:46;;;;;;;11.27;2.05;;;;;;;14.57;58.87;102258.16;5019035;28;20053;-60
2021/09/30 03:06:14;;;;;;;5.78;1.35;;;;;;;14.73;58.72;102259.53;5035047;28;20477;-63
2021/09/30 03:08:47;;;;;;;14.75;1.75;;;;;;;14.29;59.33;102260.00;5034662;28;20053;-61
2021/09/30 03:11:16;;;;;;;7.15;1.35;;;;;;;14.41;59.74;102271.44;5019514;28;20057;-62
2021/09/30 03:13:45;;;;;;;9.07;1.45;;;;;;;14.51;59.26;102273.22;5034830;28;20057;-62
2021/09/30 03:19:14;;;;;;;6.95;1.17;;;;;;;14.41;59.13;102276.16;5021697;28;20408;-62
2021/09/30 03:24:29;;;;;;;6.57;1.40;;;;;;;14.49;59.21;102272.69;5033846;28;20054;-62
2021/09/30 03:26:57;;;;;;;6.80;1.58;;;;;;;14.56;59.19;102278.66;5034612;28;20049;-62
2021/09/30 03:29:24;;;;;;;10.70;1.55;;;;;;;14.59;58.85;102278.09;5018322;28;20053;-62
2021/09/30 03:31:52;;;;;;;6.88;1.60;;;;;;;14.53;nan;102271.78;5018562;28;20054;-61
2021/09/30 03:34:49;;;;;;;7.25;1.30;;;;;;;14.36;59.15;102265.16;5021757;28;20054;-61
2021/09/30 03:37:19;;;;;;;7.68;1.52;;;;;;;14.38;59.61;102269.25;5001434;28;20057;-62
2021/09/30 03:39:47;;;;;;;8.70;2.17;;;;;;;14.37;59.44;102269.56;5018278;28;20045;-61
2021/09/30 03:42:14;;;;;;;9.98;1.65;;;;;;;14.48;59.14;102274.66;5016576;28;20056;-64
2021/09/30 03:44:46;;;;;;;6.10;1.63;;;;;;;14.63;58.67;102273.56;5034841;28;20046;-62
2021/09/30 03:47:18;;;;;;;7.10;1.40;;;;;;;14.49;59.21;102279.06;5034360;28;20048;-69
2021/09/30 03:49:57;;;;;;;10.00;1.42;;;;;;;14.32;59.38;102286.25;5026519;28;20071;-62
2021/09/30 03:52:46;;;;;;;10.25;1.92;;;;;;;14.37;59.43;102281.47;5054816;28;20067;-62
2021/09/30 03:55:41;;;;;;;9.60;1.45;;;;;;;14.44;58.78;102283.84;5031708;28;20052;-65
2021/09/30 04:00:55;;;;;;;5.82;1.30;;;;;;;14.29;59.70;102286.88;5034133;28;20665;-61
2021/09/30 04:03:25;;;;;;;7.05;1.55;;;;;;;14.30;59.68;102294.06;5034132;28;20045;-60
2021/09/30 04:05:52;;;;;;;7.38;1.33;;;;;;;14.21;60.05;102301.38;5033195;28;20078;-66
2021/09/30 04:08:20;;;;;;;9.98;1.48;;;;;;;14.03;59.77;102300.25;5017224;28;20416;-65
2021/09/30 04:10:47;;;;;;;7.15;1.42;;;;;;;14.24;59.58;102295.25;5027115;28;20072;-66
2021/09/30 04:13:14;;;;;;;9.00;2.25;;;;;;;14.21;59.75;102304.97;5017913;28;20046;-66
2021/09/30 04:15:42;;;;;;;13.18;1.67;;;;;;;14.15;59.82;102308.94;5033301;28;20056;-66
2021/09/30 04:18:09;;;;;;;7.03;1.33;;;;;;;14.16;59.81;102315.28;5033897;28;20068;-66
2021/09/30 04:20:37;;;;;;;5.53;1.38;;;;;;;14.47;59.23;102297.94;5033966;28;20079;-67
2021/09/30 04:23:06;;;;;;;7.60;1.55;;;;;;;14.40;58.93;102302.25;5034029;28;20057;-67
2021/09/30 04:25:37;;;;;;;4.90;1.58;;;;;;;14.35;58.78;102300.34;5016810;28;20046;-67
2021/09/30 04:28:05;;;;;;;6.25;1.65;;;;;;;14.31;59.18;102296.53;5034236;28;20042;-67
2021/09/30 04:30:34;;;;;;;9.75;1.30;;;;;;;14.40;58.97;102303.03;5033175;28;20056;-65
2021/09/30 04:33:22;;;;;;;9.48;1.45;;;;;;;14.51;58.70;102299.00;5033737;28;20642;-66
2021/09/30 04:35:52;;;;;;;10.15;1.95;;;;;;;14.52;58.56;102299.84;5029620;28;20057;-67
2021/09/30 04:38:19;;;;;;;7.38;2.00;;;;;;;14.31;59.32;102302.06;5016679;28;20053;-66
2021/09/30 04:40:49;;;;;;;9.38;1.67;;;;;;;14.26;59.29;102304.13;5026159;28;20417;-68
2021/09/30 04:43:17;;;;;;;7.53;1.60;;;;;;;14.16;59.10;102301.44;5033457;28;20543;-66
2021/09/30 04:45:44;;;;;;;9.13;1.67;;;;;;;14.31;58.81;102292.94;5033596;28;20045;-66
2021/09/30 04:48:18;;;;;;;9.05;1.55;;;;;;;14.27;59.08;102298.25;5033486;28;20060;-66
2021/09/30 04:51:09;;;;;;;5.28;1.40;;;;;;;14.26;59.04;102290.25;5031853;28;20508;-65
2021/09/30 04:53:37;;;;;;;8.38;1.33;;;;;;;14.00;59.77;102288.94;5032527;28;20041;-66
2021/09/30 04:56:05;;;;;;;6.00;1.30;;;;;;;13.99;59.72;102282.56;5033654;28;20405;-61
2021/09/30 04:58:39;;;;;;;8.55;2.17;;;;;;;14.05;59.61;102277.78;5032976;28;20073;-61
2021/09/30 05:01:07;;;;;;;9.70;1.75;;;;;;;14.16;59.68;102282.03;5029406;28;20042;-62
2021/09/30 05:03:39;;;;;;;7.70;1.85;;;;;;;14.15;59.34;102280.41;5026217;28;20052;-61
2021/09/30 05:06:12;;;;;;;7.47;1.52;;;;;;;14.20;59.37;102285.88;5032891;28;20511;-61
2021/09/30 05:08:42;;;;;;;10.52;2.00;;;;;;;14.07;59.16;102286.63;5033410;28;20037;-63
2021/09/30 05:11:10;;;;;;;8.52;1.98;;;;;;;14.10;59.85;102291.56;5031467;28;20428;-62
2021/09/30 05:13:42;;;;;;;9.23;2.15;;;;;;;14.16;59.90;102291.19;5027944;28;20141;-62
2021/09/30 05:16:12;;;;;;;5.18;1.45;;;;;;;14.23;59.53;102291.63;5049363;28;20060;-62
2021/09/30 05:18:58;;;;;;;8.32;2.30;;;;;;;14.04;60.07;102293.56;5033870;28;20045;-61
2021/09/30 05:21:28;;;;;;;12.05;2.15;;;;;;;14.03;59.57;102291.09;5016146;28;20512;-62
2021/09/30 05:23:56;;;;;;;9.02;2.90;;;;;;;13.99;60.13;102298.34;5016046;28;20049;-62
2021/09/30 05:26:27;;;;;;;12.40;2.67;;;;;;;14.03;59.84;102302.19;5032691;28;20041;-62
2021/09/30 05:28:56;;;;;;;6.88;2.05;;;;;;;14.03;59.81;102293.88;5016535;28;20052;-60
2021/09/30 05:31:24;;;;;;;10.43;1.97;;;;;;;14.05;59.62;102291.63;5016137;28;20041;-61
2021/09/30 05:34:10;;;;;;;7.57;1.85;;;;;;;14.23;59.20;102294.41;5033535;28;20049;-62
2021/09/30 05:36:38;;;;;;;9.30;1.92;;;;;;;14.12;59.38;102294.88;5031481;28;20046;-60
2021/09/30 05:39:05;;;;;;;8.20;2.00;;;;;;;14.22;59.18;102298.31;5016498;28;20060;-61
2021/09/30 05:41:32;;;;;;;9.15;1.92;;;;;;;14.20;59.13;102296.94;5016289;28;20053;-61
2021/09/30 05:44:08;;;;;;;8.73;1.90;;;;;;;14.26;59.00;102293.03;5015693;28;20048;-61
2021/09/30 05:46:52;;;;;;;9.98;2.30;;;;;;;14.24;59.01;102293.25;5031604;28;20065;-60
2021/09/30 05:49:23;;;;;;;15.80;2.25;;;;;;;14.29;58.63;102296.03;5029994;28;20054;-60
2021/09/30 05:52:07;;;;;;;15.40;2.42;;;;;;;14.10;59.44;102300.72;5031740;28;20645;-61
2021/09/30 05:54:48;;;;;;;9.05;2.72;;;;;;;14.21;59.77;102304.97;5021791;28;20049;-63
2021/09/30 05:57:21;;;;;;;7.90;2.22;;;;;;;14.20;59.61;102313.56;5035548;28;20068;-61
2021/09/30 05:59:49;;;;;;;8.43;2.20;;;;;;;14.22;59.75;102314.94;5035809;28;20057;-63
2021/09/30 06:10:52;;;;;;;12.75;4.18;;;;;;;14.31;62.72;102315.94;5033710;28;20045;-61
2021/09/30 06:13:35;;;;;;;15.43;3.38;;;;;;;14.71;65.70;102305.34;5036308;28;20052;-62
2021/09/30 06:16:11;;;;;;;16.85;2.65;;;;;;;14.26;66.96;102306.88;5028251;28;20057;-61
2021/09/30 06:18:39;;;;;;;9.98;3.25;;;;;;;14.14;67.26;102309.25;5027320;28;20050;-61
2021/09/30 06:21:09;;;;;;;14.73;3.22;;;;;;;14.17;69.46;102303.09;5026560;28;20064;-62
2021/09/30 06:23:36;;;;;;;15.00;3.95;;;;;;;14.31;71.50;102309.56;5051737;28;20049;-62
2021/09/30 06:26:04;;;;;;;16.08;4.82;;;;;;;14.44;71.57;102308.81;5036155;28;20052;-63
2021/09/30 06:28:36;;;;;;;15.02;5.88;;;;;;;14.45;71.82;102308.50;5028616;28;20046;-65
2021/09/30 06:31:06;;;;;;;17.63;4.47;;;;;;;14.62;70.51;102307.97;5034437;28;20053;-62
2021/09/30 06:33:54;;;;;;;15.30;3.22;;;;;;;14.54;68.05;102308.66;5030604;28;20057;-62
2021/09/30 06:36:33;;;;;;;16.15;3.30;;;;;;;14.75;66.09;102301.66;5014284;28;20053;-68
2021/09/30 06:39:02;;;;;;;13.50;3.83;;;;;;;14.96;62.95;102300.16;5033819;28;20506;-71
2021/09/30 06:41:33;;;;;;;24.15;11.95;;;;;;;14.70;63.72;102303.69;5035011;28;20049;-68
2021/09/30 06:44:34;;;;;;;14.20;3.20;;;;;;;14.36;61.55;102299.25;5028948;28;20069;-66
2021/09/30 06:47:20;;;;;;;19.73;4.57;;;;;;;14.54;63.76;102301.16;5035251;28;20064;-68
2021/09/30 06:49:49;;;;;;;14.82;3.20;;;;;;;14.52;61.79;102302.59;5019350;28;20515;-69
2021/09/30 06:52:56;;;;;;;11.43;2.83;;;;;;;14.46;61.73;102293.53;5034544;28;20057;-68
2021/09/30 06:55:46;;;;;;;15.68;3.20;;;;;;;14.41;62.35;102290.84;5034234;28;20065;-70
2021/09/30 06:58:14;;;;;;;13.52;3.45;;;;;;;14.21;61.92;102296.66;5035240;28;20053;-69
2021/09/30 07:01:16;;;;;;;10.15;2.83;;;;;;;14.29;61.35;102295.19;5028510;28;20532;-69
2021/09/30 07:04:19;;;;;;;9.23;2.60;;;;;;;14.17;61.93;102292.84;5032921;28;20054;-70
2021/09/30 07:07:07;;;;;;;13.20;3.10;;;;;;;14.37;60.62;102292.56;5022660;28;20057;-69
2021/09/30 07:09:35;;;;;;;12.30;3.28;;;;;;;14.35;60.17;102280.13;5036082;28;20060;-71
2021/09/30 07:12:03;;;;;;;14.32;3.40;;;;;;;14.57;60.21;102278.38;5036472;28;20050;-71
2021/09/30 07:14:30;;;;;;;12.77;3.67;;;;;;;14.39;60.14;102292.25;5036138;28;20096;-70
2021/09/30 07:17:04;;;;;;;11.30;2.70;;;;;;;14.17;60.26;102283.69;5034406;28;20060;-72
2021/09/30 07:19:33;;;;;;;16.73;3.40;;;;;;;14.08;60.53;102283.56;5035605;28;20060;-70
2021/09/30 07:22:03;;;;;;;13.73;3.07;;;;;;;14.35;60.14;102292.03;5036684;28;20061;-70
2021/09/30 07:24:31;;;;;;;16.25;2.97;;;;;;;14.45;59.25;102291.06;5036934;28;20076;-69
2021/09/30 07:26:59;;;;;;;14.73;3.15;;;;;;;14.65;nan;102307.38;5034983;28;20057;-71
2021/09/30 07:29:27;;;;;;;22.30;3.92;;;;;;;14.61;58.76;102306.31;5040415;28;20523;-60
2021/09/30 07:31:55;;;;;;;12.65;3.55;;;;;;;14.78;58.27;102306.59;5035253;28;20160;-69
2021/09/30 07:34:22;;;;;;;13.85;3.00;;;;;;;14.91;57.88;102311.38;5035723;28;20120;-68
2021/09/30 07:36:50;;;;;;;13.50;3.08;;;;;;;14.81;58.13;102306.00;5034236;28;20396;-64
2021/09/30 07:39:17;;;;;;;13.52;3.03;;;;;;;14.74;57.63;102301.94;5010476;28;20072;-69
2021/09/30 07:41:45;;;;;;;9.93;2.90;;;;;;;14.82;57.56;102301.28;5034428;28;20057;-70
2021/09/30 07:44:13;;;;;;;14.95;3.30;;;;;;;14.74;57.55;102301.94;5036061;28;20080;-63
2021/09/30 07:46:41;;;;;;;11.68;2.88;;;;;;;14.74;57.83;102297.25;5035091;28;20547;-63
2021/09/30 07:49:09;;;;;;;10.98;2.80;;;;;;;14.81;57.56;102302.38;5035185;28;20049;-69
2021/09/30 07:51:37;;;;;;;9.90;2.53;;;;;;;15.01;56.87;102299.28;5034232;28;20092;-63
2021/09/30 07:54:08;;;;;;;15.80;3.55;;;;;;;14.96;57.04;102302.16;5035061;28;20060;-70
2021/09/30 07:56:38;;;;;;;11.77;3.38;;;;;;;15.07;56.61;102301.66;5035197;28;20041;-69
2021/09/30 07:59:06;;;;;;;13.80;3.42;;;;;;;15.15;56.52;102298.16;5034827;28;20056;-69
2021/09/30 08:01:33;;;;;;;10.90;3.00;;;;;;;15.14;56.29;102298.47;5034579;28;20049;-61
2021/09/30 08:04:03;;;;;;;13.05;3.10;;;;;;;14.86;57.17;102302.28;5034937;28;20061;-67
2021/09/30 08:06:31;;;;;;;16.33;3.95;;;;;;;15.05;57.27;102306.69;5035681;28;20037;-67
2021/09/30 08:08:59;;;;;;;16.70;4.53;;;;;;;15.09;57.57;102298.56;5034505;28;20048;-62
2021/09/30 08:11:27;;;;;;;15.02;4.00;;;;;;;15.08;57.17;102308.03;5034941;28;20053;-68
2021/09/30 08:13:55;;;;;;;13.63;2.65;;;;;;;15.43;56.51;102299.88;5034512;28;20053;-68
2021/09/30 08:16:27;;;;;;;20.38;3.28;;;;;;;15.62;55.48;102303.38;5035190;28;20045;-62
2021/09/30 08:18:58;;;;;;;11.98;2.75;;;;;;;15.69;55.02;102300.22;5034179;28;20056;-62
2021/09/30 08:21:27;;;;;;;13.43;2.92;;;;;;;15.83;55.10;102314.09;5030349;28;20056;-67
2021/09/30 08:23:56;;;;;;;14.20;2.83;;;;;;;15.77;54.65;102316.97;5034957;28;20093;-60
2021/09/30 08:26:23;;;;;;;17.05;2.53;;;;;;;15.87;54.01;102307.59;5034527;28;20053;-62
2021/09/30 08:28:52;;;;;;;7.50;2.30;;;;;;;15.85;54.13;102309.03;5034668;28;20054;-62
2021/09/30 08:31:21;;;;;;;11.05;2.63;;;;;;;15.98;53.67;102310.97;5025817;28;20052;-61
2021/09/30 08:33:50;;;;;;;12.52;2.45;;;;;;;15.98;53.26;102309.03;5034523;28;20062;-61
2021/09/30 08:36:18;;;;;;;13.63;2.42;;;;;;;16.03;53.22;102317.25;5033950;28;20053;-68
2021/09/30 08:38:45;;;;;;;11.55;2.90;;;;;;;16.06;53.02;102313.84;5037474;28;20512;-61
2021/09/30 08:41:14;;;;;;;12.18;2.38;;;;;;;16.03;53.36;102314.47;5020957;28;20060;-67
2021/09/30 08:43:42;;;;;;;11.85;2.17;;;;;;;15.87;53.55;102304.81;5034756;28;20448;-62
2021/09/30 08:46:10;;;;;;;12.93;2.05;;;;;;;16.05;53.34;102309.44;5033874;28;20049;-63
2021/09/30 08:48:37;;;;;;;10.35;2.80;;;;;;;15.98;53.23;102303.47;5034639;28;20045;-62
2021/09/30 08:51:08;;;;;;;14.43;3.13;;;;;;;16.11;52.70;102302.59;4999382;28;20559;-60
2021/09/30 08:53:35;;;;;;;10.63;2.20;;;;;;;16.09;52.55;102295.72;5015577;28;20057;-61
2021/09/30 08:56:05;;;;;;;12.25;3.00;;;;;;;16.27;52.88;102294.72;5032388;28;20053;-66
2021/09/30 08:58:33;;;;;;;14.00;2.93;;;;;;;16.43;56.17;102294.06;5034606;28;20048;-62
2021/09/30 09:01:03;;;;;;;17.70;2.50;;;;;;;16.32;56.45;102287.09;5034047;28;20299;-62
2021/09/30 09:03:42;;;;;;;9.27;2.70;;;;;;;16.52;55.48;102289.44;5034259;28;20056;-62
2021/09/30 09:06:30;;;;;;;11.85;1.88;;;;;;;16.50;54.58;102271.41;5033716;28;20045;-63
2021/09/30 09:09:20;;;;;;;10.65;1.92;;;;;;;16.76;54.44;102264.06;5028445;28;20149;-63
2021/09/30 09:11:49;;;;;;;9.93;2.13;;;;;;;16.79;53.81;102269.81;5032320;28;20046;-62
2021/09/30 09:14:28;;;;;;;11.90;2.70;;;;;;;16.65;53.28;102262.69;5034545;28;20045;-67
2021/09/30 09:17:02;;;;;;;10.77;2.58;;;;;;;16.76;52.64;102267.69;5029241;28;20052;-66
2021/09/30 09:19:39;;;;;;;9.82;1.90;;;;;;;16.93;52.29;102263.38;5031767;28;20061;-68
2021/09/30 09:22:14;;;;;;;9.70;2.05;;;;;;;16.84;51.39;102266.09;5033498;28;20068;-66
2021/09/30 09:25:06;;;;;;;11.88;1.52;;;;;;;16.67;52.20;102265.97;5033917;28;20562;-67
2021/09/30 09:27:47;;;;;;;12.48;2.10;;;;;;;16.68;51.86;102260.09;5033376;28;20045;-68
2021/09/30 09:30:37;;;;;;;10.10;2.00;;;;;;;16.59;51.17;102253.66;5033151;28;20060;-68
2021/09/30 09:33:07;;;;;;;15.48;2.50;;;;;;;16.68;52.17;102260.09;5033447;28;20054;-67
2021/09/30 09:35:49;;;;;;;22.05;2.20;;;;;;;16.68;51.58;102259.28;5033577;28;20056;-67
2021/09/30 09:38:17;;;;;;;7.13;1.60;;;;;;;16.73;51.67;102254.41;5033833;28;20416;-68
2021/09/30 09:40:44;;;;;;;11.43;1.95;;;;;;;16.82;51.83;102252.47;5044597;28;20060;-68
2021/09/30 09:43:36;;;;;;;11.35;2.17;;;;;;;16.85;51.05;102259.38;5032669;28;20056;-69
2021/09/30 09:46:06;;;;;;;8.63;2.28;;;;;;;16.97;51.19;102259.63;5033433;28;20050;-63
2021/09/30 09:48:34;;;;;;;9.30;1.83;;;;;;;16.98;50.74;102252.91;5032974;28;20038;-67
2021/09/30 09:51:11;;;;;;;6.63;1.70;;;;;;;17.08;49.99;102247.09;5032872;28;20051;-67
2021/09/30 09:53:40;;;;;;;7.78;1.80;;;;;;;17.17;49.88;102256.31;5040340;28;20175;-68
2021/09/30 09:56:15;;;;;;;15.93;2.30;;;;;;;17.00;49.96;102258.97;5031741;28;20049;-61
2021/09/30 09:58:43;;;;;;;9.32;1.92;;;;;;;17.12;50.42;102253.63;5033564;28;20050;-68
2021/09/30 10:01:10;;;;;;;8.10;1.83;;;;;;;17.11;49.23;102248.38;5033064;28;20049;-67
2021/09/30 10:03:38;;;;;;;16.08;2.95;;;;;;;17.18;49.51;102243.19;5031675;28;20064;-69
2021/09/30 10:06:06;;;;;;;12.07;2.17;;;;;;;17.18;49.59;102246.78;5032556;28;20523;-68
2021/09/30 10:08:34;;;;;;;8.10;1.60;;;;;;;17.08;49.63;102243.47;5032234;28;20394;-69
2021/09/30 10:11:01;;;;;;;11.27;1.77;;;;;;;17.18;49.32;102245.97;5033167;28;20049;-68
2021/09/30 10:13:32;;;;;;;7.68;1.90;;;;;;;17.08;49.48;102237.91;5033303;28;20045;-68
2021/09/30 10:16:00;;;;;;;13.25;2.03;;;;;;;17.42;48.56;102241.66;5031034;28;20049;-68
2021/09/30 10:18:28;;;;;;;11.20;1.92;;;;;;;17.45;48.13;102237.41;5033683;28;20049;-68
2021/09/30 10:20:59;;;;;;;11.55;2.20;;;;;;;17.48;47.58;102237.63;5032797;28;20045;-69
2021/09/30 10:23:34;;;;;;;13.30;2.30;;;;;;;17.31;48.36;102242.28;5029919;28;20385;-67
2021/09/30 10:26:15;;;;;;;10.32;2.50;;;;;;;17.36;47.38;102233.75;5032172;28;20049;-68
2021/09/30 10:28:45;;;;;;;9.27;2.10;;;;;;;17.53;48.24;102237.47;5032246;28;20050;-69
2021/09/30 10:31:33;;;;;;;14.02;2.50;;;;;;;17.18;46.50;102232.03;5032710;28;20056;-68
2021/09/30 10:34:07;;;;;;;8.77;2.22;;;;;;;17.20;47.45;102229.75;5021706;28;20057;-67
2021/09/30 10:36:52;;;;;;;9.40;2.08;;;;;;;17.40;47.51;102232.78;5032830;28;20049;-68
2021/09/30 10:39:23;;;;;;;19.05;2.22;;;;;;;17.13;47.59;102233.00;5030671;28;20041;-67
2021/09/30 10:41:57;;;;;;;10.85;2.30;;;;;;;17.65;47.10;102231.25;5035035;28;20064;-68
2021/09/30 10:44:34;;;;;;;10.02;2.13;;;;;;;17.54;46.58;102224.34;5036361;28;20053;-69
2021/09/30 10:47:07;;;;;;;10.13;2.88;;;;;;;17.34;46.58;102224.91;5037280;28;20049;-68
2021/09/30 10:49:52;;;;;;;8.05;2.80;;;;;;;17.55;47.97;102229.59;5036959;28;20480;-67
2021/09/30 10:52:33;;;;;;;6.97;2.08;;;;;;;17.54;47.40;102229.94;5036977;28;20524;-66
2021/09/30 10:55:00;;;;;;;12.45;3.15;;;;;;;17.65;46.53;102214.53;5036497;28;20049;-69
2021/09/30 10:57:27;;;;;;;9.88;2.40;;;;;;;17.56;47.06;102216.47;5036370;28;20041;-71
2021/09/30 10:59:54;;;;;;;9.90;2.53;;;;;;;17.59;46.98;102210.28;5036172;28;20489;-69
2021/09/30 11:02:21;;;;;;;8.30;2.17;;;;;;;17.81;45.90;102196.22;5015336;28;20057;-70
2021/09/30 11:05:08;;;;;;;7.05;2.08;;;;;;;17.72;45.99;102198.97;5034644;28;20057;-71
2021/09/30 11:07:40;;;;;;;5.88;1.60;;;;;;;17.74;47.35;102190.28;5035298;28;20042;-71
2021/09/30 11:10:11;;;;;;;11.25;2.10;;;;;;;18.04;45.49;102171.78;5035489;28;20053;-71
2021/09/30 11:12:39;;;;;;;11.18;2.80;;;;;;;17.89;47.17;102184.22;5023239;28;20056;-68
2021/09/30 11:15:06;;;;;;;18.15;5.97;;;;;;;18.03;47.12;102170.16;5035330;28;20409;-67
2021/09/30 11:17:37;;;;;;;23.38;10.65;;;;;;;17.55;45.81;102171.09;5036848;28;20049;-72
2021/09/30 11:20:34;;;;;;;11.45;4.63;;;;;;;17.88;47.75;102169.50;5035973;28;20079;-64
2021/09/30 11:24:00;;;;;;;11.07;3.90;;;;;;;17.73;45.61;102158.00;5036115;28;20049;-67
2021/09/30 11:26:34;;;;;;;12.65;3.55;;;;;;;17.69;46.79;102155.06;4994447;28;20054;-70
2021/09/30 11:29:22;;;;;;;;;;;;;;;17.88;49.46;102152.75;5033812;28;20061;-70
2021/09/30 11:31:58;;;;;;;11.18;3.00;;;;;;;17.81;47.52;102144.06;5034959;28;20289;-71
2021/09/30 11:34:27;;;;;;;10.38;2.20;;;;;;;17.80;47.23;102144.41;5031688;28;20049;-72
2021/09/30 11:37:11;;;;;;;9.82;2.42;;;;;;;17.89;48.43;102145.19;5034693;28;20042;-65
2021/09/30 11:39:39;;;;;;;8.60;2.28;;;;;;;17.86;47.88;102152.28;5038618;28;20353;-65
2021/09/30 11:42:06;;;;;;;9.73;2.67;;;;;;;18.14;48.87;102152.75;5033769;28;20500;-65
2021/09/30 11:44:33;;;;;;;6.47;2.15;;;;;;;18.27;48.44;102142.56;5033634;28;20053;-65
2021/09/30 11:47:01;;;;;;;7.07;2.03;;;;;;;17.99;43.59;102145.69;5034820;28;20033;-65
2021/09/30 11:49:40;;;;;;;8.27;1.90;;;;;;;17.35;44.17;102142.97;5034305;28;20061;-66
2021/09/30 11:52:12;;;;;;;6.28;1.88;;;;;;;17.60;46.25;102145.84;5031875;28;20053;-62
2021/09/30 11:54:40;;;;;;;5.68;1.58;;;;;;;17.87;48.29;102142.75;5035529;28;20695;-63
2021/09/30 11:57:16;;;;;;;7.40;1.70;;;;;;;17.95;45.93;102125.22;5035011;28;20057;-69
2021/09/30 11:59:44;;;;;;;7.57;1.75;;;;;;;18.20;45.76;102122.72;5033735;28;20049;-68
2021/09/30 12:02:13;;;;;;;8.32;1.95;;;;;;;18.33;43.83;102125.31;5034576;28;20057;-68
2021/09/30 12:04:50;;;;;;;8.00;1.48;;;;;;;18.19;42.15;102135.84;5030545;28;20704;-68
2021/09/30 12:07:25;;;;;;;7.53;1.65;;;;;;;18.51;43.96;102129.75;5034201;28;20045;-69
2021/09/30 12:09:55;;;;;;;6.13;1.60;;;;;;;18.44;45.93;102123.84;5035451;28;20452;-62
2021/09/30 12:12:34;;;;;;;7.40;1.67;;;;;;;18.58;43.60;102124.47;5033922;28;20049;-62
2021/09/30 12:15:04;;;;;;;11.85;2.30;;;;;;;18.48;44.18;102104.47;5032252;28;20049;-61
2021/09/30 12:17:34;;;;;;;11.57;1.27;;;;;;;18.47;44.78;102094.44;5035700;28;20052;-68
2021/09/30 12:20:06;;;;;;;7.32;1.38;;;;;;;18.42;43.79;102089.06;5034616;28;20060;-61
2021/09/30 12:22:36;;;;;;;6.85;1.52;;;;;;;18.59;45.18;102073.06;5032896;28;20060;-61
2021/09/30 12:25:10;;;;;;;7.82;1.30;;;;;;;18.55;44.26;102080.47;5033886;28;20061;-69
2021/09/30 12:27:40;;;;;;;7.15;1.35;;;;;;;18.24;40.98;102079.06;5027422;28;20489;-63
2021/09/30 12:30:14;;;;;;;4.30;1.33;;;;;;;18.29;43.03;102079.69;5031576;28;20046;-69
2021/09/30 12:32:44;;;;;;;7.43;1.60;;;;;;;18.07;43.30;102079.09;5034137;28;20037;-61
2021/09/30 12:35:23;;;;;;;4.90;1.08;;;;;;;18.46;44.06;102074.09;5032520;28;20496;-70
2021/09/30 12:37:53;;;;;;;8.65;1.60;;;;;;;17.84;40.34;102073.72;5032689;28;20053;-69
2021/09/30 12:40:26;;;;;;;5.90;1.20;;;;;;;17.60;42.20;102069.78;5037440;28;20069;-63
2021/09/30 12:43:07;;;;;;;8.45;1.40;;;;;;;17.91;43.78;102068.47;5034980;28;20531;-68
2021/09/30 12:45:40;;;;;;;9.68;2.00;;;;;;;18.14;43.46;102059.88;5034065;28;20054;-63
2021/09/30 12:48:16;;;;;;;5.80;0.90;;;;;;;18.06;43.38;102047.63;5033822;28;20061;-63
2021/09/30 12:50:58;;;;;;;8.93;1.52;;;;;;;18.25;43.32;102055.59;5034787;28;20045;-63
2021/09/30 12:53:28;;;;;;;5.97;1.40;;;;;;;18.03;42.74;102055.81;5030914;28;20515;-62
2021/09/30 12:56:06;;;;;;;7.65;1.70;;;;;;;18.23;44.01;102052.31;5033441;28;20703;-61
2021/09/30 12:58:37;;;;;;;8.07;1.45;;;;;;;18.60;43.01;102046.00;5031702;28;20144;-69
2021/09/30 13:01:30;;;;;;;8.02;1.60;;;;;;;18.59;42.61;102041.53;5032548;28;20072;-68
2021/09/30 13:04:21;;;;;;;4.40;1.70;;;;;;;18.62;41.38;102032.53;5033999;28;20057;-61
2021/09/30 13:07:02;;;;;;;5.20;1.38;;;;;;;18.78;42.45;102030.78;5031614;28;20529;-70
2021/09/30 13:09:38;;;;;;;3.70;0.93;;;;;;;19.01;42.65;102032.94;5029447;28;20053;-62
2021/09/30 13:12:14;;;;;;;8.30;1.00;;;;;;;18.96;39.21;102016.41;5033237;28;20064;-68
2021/09/30 13:14:48;;;;;;;5.35;1.10;;;;;;;19.02;42.30;102017.03;5034628;28;20051;-63
2021/09/30 13:17:25;;;;;;;6.13;1.27;;;;;;;18.75;39.96;102017.50;5032087;28;20037;-64
2021/09/30 13:19:59;;;;;;;6.13;1.23;;;;;;;18.88;39.17;102010.88;5026075;28;20512;-62
2021/09/30 13:22:27;;;;;;;7.28;1.23;;;;;;;18.77;39.78;102002.06;5028570;28;20093;-69
2021/09/30 13:24:56;;;;;;;3.00;1.00;;;;;;;19.11;40.54;102001.00;5033792;28;20076;-64
2021/09/30 13:27:29;;;;;;;5.40;1.33;;;;;;;19.17;39.49;101994.06;5046171;28;20056;-62
2021/09/30 13:29:57;;;;;;;7.10;1.08;;;;;;;19.05;36.15;101996.78;5033013;28;20488;-63
2021/09/30 13:32:26;;;;;;;6.90;1.02;;;;;;;18.64;36.21;101996.69;5015925;28;20061;-62
2021/09/30 13:34:57;;;;;;;6.88;1.30;;;;;;;18.28;40.14;101986.03;5033118;28;20056;-61
2021/09/30 13:37:25;;;;;;;5.97;1.20;;;;;;;18.64;40.85;101983.56;5033501;28;20241;-62
2021/09/30 13:39:56;;;;;;;6.95;1.35;;;;;;;18.99;40.53;101989.75;5037048;28;20049;-63
2021/09/30 13:42:24;;;;;;;7.10;1.17;;;;;;;18.89;39.56;101979.81;5032617;28;20068;-61
2021/09/30 13:44:52;;;;;;;5.47;1.05;;;;;;;18.60;39.45;101981.78;5032809;28;20065;-64
2021/09/30 13:47:20;;;;;;;7.80;1.15;;;;;;;18.59;38.29;101971.78;5032939;28;20049;-61
2021/09/30 13:49:47;;;;;;;5.95;1.20;;;;;;;18.65;41.97;101979.63;5033511;28;20060;-62
2021/09/30 13:52:18;;;;;;;7.93;0.98;;;;;;;19.03;39.78;101966.41;5034414;28;20424;-63
2021/09/30 13:54:46;;;;;;;8.48;1.10;;;;;;;18.98;39.95;101969.41;5031404;28;20056;-63
2021/09/30 13:57:13;;;;;;;5.63;1.23;;;;;;;18.85;38.53;101964.88;5026071;28;20053;-63
2021/09/30 13:59:40;;;;;;;6.00;1.77;;;;;;;19.02;39.80;101964.75;5029968;28;20045;-66
2021/09/30 14:02:30;;;;;;;5.70;1.13;;;;;;;19.10;39.62;101943.50;5030268;28;20052;-62
2021/09/30 14:04:58;;;;;;;7.50;1.33;;;;;;;19.05;40.31;101936.16;5031596;28;20065;-62
2021/09/30 14:07:25;;;;;;;10.48;1.23;;;;;;;19.12;40.50;101923.63;5031875;28;20034;-64
2021/09/30 14:09:53;;;;;;;5.47;1.27;;;;;;;19.14;40.20;101927.72;5031657;28;20049;-63
2021/09/30 14:12:21;;;;;;;9.75;2.05;;;;;;;19.48;40.96;101921.81;5017274;28;20053;-61
2021/09/30 14:14:48;;;;;;;7.50;1.63;;;;;;;19.52;41.09;101919.16;5036858;28;20524;-61
2021/09/30 14:17:16;;;;;;;4.80;1.40;;;;;;;19.50;40.87;101915.88;5036814;28;20064;-62
2021/09/30 14:19:43;;;;;;;5.60;1.65;;;;;;;19.17;38.95;101915.03;5035787;28;20531;-62
2021/09/30 14:22:10;;;;;;;5.30;1.38;;;;;;;19.22;40.33;101907.25;5037701;28;20052;-62
2021/09/30 14:24:38;;;;;;;6.55;1.50;;;;;;;19.41;40.68;101901.19;5037863;28;20061;-62
2021/09/30 14:27:05;;;;;;;4.63;1.20;;;;;;;19.45;40.27;101894.56;5036471;28;20068;-64
2021/09/30 14:29:34;;;;;;;8.40;1.83;;;;;;;19.44;39.11;101892.91;5037211;28;20049;-61
2021/09/30 14:32:02;;;;;;;7.70;2.17;;;;;;;19.42;39.59;101886.06;5036088;28;20045;-63
2021/09/30 14:34:29;;;;;;;5.00;1.40;;;;;;;19.55;40.25;101888.53;5037405;28;20535;-63
2021/09/30 14:36:57;;;;;;;11.45;1.90;;;;;;;19.43;39.10;101876.50;5038158;28;20061;-62